Skip Navigation
Skip Navigation

Today's Weather Data

Time Wind Dir Wind Spd
mph
Wind Gust
mph
Hum In
%
Humidity
%
Temp In
F
Temp
F
Raw Barom
in
Tot Rain
in
UV Solar
W/sqm
DailyRain
in
HourRain
in
24HrRain
in
RainRate
in/hr
9/18/2014 9:56:00a 198 1 5 40 55 82.5 75.8 29.89
9/18/2014 11:00:00a 234 2 8 39 53 84.0 77.9 29.89 0.99
9/18/2014 11:06:00a 228 1 6 39 52 84.2 78.9 29.89 0.99 4.5 761 0.00 0.00 0.00 0.000
9/18/2014 11:07:00a 229 3 6 39 51 84.2 78.7 29.89 0.99 4.5 763 0.00 0.00 0.00 0.000
9/18/2014 11:08:00a 230 0 6 39 51 84.4 78.7 29.89 0.99 4.5 766 0.00 0.00 0.00 0.000
9/18/2014 11:09:00a 246 2 6 39 52 84.4 78.7 29.89 0.99 4.6 770 0.00 0.00 0.00 0.000
9/18/2014 11:10:00a 246 0 6 39 51 84.4 78.7 29.89 0.99 4.6 772 0.00 0.00 0.00 0.000
9/18/2014 11:11:00a 246 2 6 39 51 84.4 78.8 29.89 0.99 4.6 772 0.00 0.00 0.00 0.000
9/18/2014 11:12:00a 156 2 6 39 52 84.4 79.0 29.89 0.99 4.6 775 0.00 0.00 0.00 0.000
9/18/2014 11:13:00a 156 4 6 39 51 84.4 79.0 29.89 0.99 4.6 775 0.00 0.00 0.00 0.000
9/18/2014 11:14:00a 205 5 8 39 51 84.4 79.0 29.89 0.99 4.7 782 0.00 0.00 0.00 0.000
9/18/2014 11:15:00a 194 6 8 39 51 84.4 78.8 29.89 0.99 4.7 782 0.00 0.00 0.00 0.000
9/18/2014 11:16:00a 187 5 8 39 51 84.4 78.6 29.89 0.99 4.7 780 0.00 0.00 0.00 0.000
9/18/2014 11:17:00a 197 1 8 39 51 84.4 78.6 29.89 0.99 4.8 786 0.00 0.00 0.00 0.000
9/18/2014 11:18:00a 175 4 5 39 52 84.6 78.6 29.89 0.99 4.8 786 0.00 0.00 0.00 0.000
9/18/2014 11:19:00a 196 5 6 39 52 84.6 78.7 29.89 0.99 4.8 788 0.00 0.00 0.00 0.000
9/18/2014 11:20:00a 197 6 9 39 52 84.6 78.9 29.89 0.99 4.8 793 0.00 0.00 0.00 0.000
9/18/2014 11:21:00a 174 5 9 39 52 84.6 79.0 29.89 0.99 4.9 796 0.00 0.00 0.00 0.000
9/18/2014 11:22:00a 206 6 9 39 51 84.6 78.9 29.89 0.99 4.9 796 0.00 0.00 0.00 0.000
9/18/2014 11:23:00a 225 10 10 39 52 84.6 78.8 29.89 0.99 4.9 793 0.00 0.00 0.00 0.000
9/18/2014 11:24:00a 228 4 10 39 52 84.6 78.7 29.89 0.99 4.9 795 0.00 0.00 0.00 0.000
9/18/2014 11:25:00a 200 6 10 39 52 84.8 78.8 29.89 0.99 4.9 796 0.00 0.00 0.00 0.000
9/18/2014 11:26:00a 195 5 10 39 51 84.8 78.8 29.89 0.99 4.9 789 0.00 0.00 0.00 0.000
9/18/2014 11:27:00a 234 2 10 39 51 84.8 78.7 29.89 0.99 4.9 786 0.00 0.00 0.00 0.000
9/18/2014 11:28:00a 205 6 10 39 52 84.8 78.8 29.89 0.99 4.9 789 0.00 0.00 0.00 0.000
9/18/2014 11:29:00a 169 3 10 39 52 84.8 78.6 29.89 0.99 4.9 796 0.00 0.00 0.00 0.000
9/18/2014 11:30:00a 173 0 10 39 52 84.8 78.5 29.89 0.99 5.0 803 0.00 0.00 0.00 0.000
9/18/2014 11:31:00a 172 0 10 39 52 84.8 78.6 29.89 0.99 5.0 805 0.00 0.00 0.00 0.000
9/18/2014 11:32:00a 221 8 10 39 53 84.8 78.7 29.89 0.99 5.0 809 0.00 0.00 0.00 0.000
9/18/2014 11:33:00a 194 3 5 39 52 85.0 78.8 29.89 0.99 5.0 807 0.00 0.00 0.00 0.000
9/18/2014 11:34:00a 199 4 5 39 52 85.0 78.7 29.89 0.99 5.1 810 0.00 0.00 0.00 0.000
9/18/2014 11:35:00a 197 6 9 39 52 85.0 78.7 29.89 0.99 5.1 814 0.00 0.00 0.00 0.000
9/18/2014 11:36:00a 215 6 9 39 53 85.0 78.8 29.89 0.99 5.1 812 0.00 0.00 0.00 0.000
9/18/2014 11:37:00a 221 7 9 39 52 85.0 78.8 29.89 0.99 5.1 812 0.00 0.00 0.00 0.000
9/18/2014 11:38:00a 207 6 10 39 52 85.0 78.8 29.89 0.99 5.1 817 0.00 0.00 0.00 0.000
9/18/2014 11:39:00a 176 3 10 39 51 85.0 78.7 29.89 0.99 5.2 817 0.00 0.00 0.00 0.000
9/18/2014 11:40:00a 175 2 10 39 52 85.0 78.7 29.89 0.99 5.1 814 0.00 0.00 0.00 0.000
9/18/2014 11:41:00a 176 0 10 39 52 85.0 78.7 29.88 0.99 5.2 819 0.00 0.00 0.00 0.000
9/18/2014 11:42:00a 176 0 10 39 52 85.0 78.8 29.89 0.99 5.2 816 0.00 0.00 0.00 0.000
9/18/2014 11:43:00a 176 2 10 39 51 85.2 78.9 29.89 0.99 5.2 821 0.00 0.00 0.00 0.000
9/18/2014 11:44:00a 177 3 10 39 51 85.2 79.0 29.89 0.99 5.2 823 0.00 0.00 0.00 0.000
9/18/2014 11:45:00a 219 6 10 39 52 85.2 79.0 29.89 0.99 5.3 830 0.00 0.00 0.00 0.000
9/18/2014 11:46:00a 187 4 10 39 51 85.2 79.2 29.89 0.99 5.3 833 0.00 0.00 0.00 0.000
9/18/2014 11:47:00a 238 4 10 39 52 85.2 79.4 29.88 0.99 5.3 835 0.00 0.00 0.00 0.000
9/18/2014 11:48:00a 238 4 5 39 52 85.2 79.5 29.88 0.99 5.3 831 0.00 0.00 0.00 0.000
9/18/2014 11:49:00a 255 1 5 39 51 85.2 79.5 29.88 0.99 5.3 833 0.00 0.00 0.00 0.000
9/18/2014 11:50:00a 261 1 5 39 51 85.2 79.4 29.88 0.99 5.4 835 0.00 0.00 0.00 0.000
9/18/2014 11:51:00a 244 3 6 39 51 85.4 79.4 29.88 0.99 5.4 835 0.00 0.00 0.00 0.000
9/18/2014 11:52:00a 248 1 6 39 51 85.4 79.4 29.88 0.99 5.4 838 0.00 0.00 0.00 0.000
9/18/2014 11:53:00a 248 3 6 39 52 85.4 79.6 29.88 0.99 5.4 840 0.00 0.00 0.00 0.000
9/18/2014 11:54:00a 241 4 6 39 51 85.4 79.7 29.88 0.99 5.4 837 0.00 0.00 0.00 0.000
9/18/2014 11:55:00a 226 1 6 39 50 85.4 79.6 29.88 0.99 5.4 831 0.00 0.00 0.00 0.000
9/18/2014 11:56:00a 255 2 6 38 51 85.4 79.6 29.88 0.99 5.4 835 0.00 0.00 0.00 0.000
9/18/2014 2:03:00p 193 4 12 37 42 85.4 79.6 29.88 0.99 5.4 835 0.00 0.00 0.00 0.000
9/18/2014 2:11:00p 213 6 9 37 42 87.0 82.5 29.84 0.99 4.8 812 0.00 0.00 0.00 0.000
9/18/2014 4:17:00p 197 7 10 36 45 86.8 84.3 29.81 0.99 1.7 506 0.00 0.00 0.00 0.000
9/18/2014 4:18:00p 274 2 3 36 45 86.8 84.2 29.81 0.99 1.7 506 0.00 0.00 0.00 0.000
9/18/2014 4:19:00p 274 1 9 36 45 86.8 84.1 29.81 0.99 1.7 501 0.00 0.00 0.00 0.000
9/18/2014 4:20:00p 195 5 9 36 45 86.8 84.0 29.81 0.99 1.7 499 0.00 0.00 0.00 0.000
9/18/2014 4:21:00p 212 0 9 36 45 86.8 83.9 29.81 0.99 1.7 497 0.00 0.00 0.00 0.000
9/18/2014 4:22:00p 214 1 9 36 46 86.8 83.9 29.81 0.99 1.7 496 0.00 0.00 0.00 0.000
9/18/2014 4:23:00p 217 5 9 36 45 86.8 83.9 29.81 0.99 1.6 494 0.00 0.00 0.00 0.000
9/18/2014 4:24:00p 194 5 9 36 45 86.8 83.9 29.81 0.99 1.6 489 0.00 0.00 0.00 0.000
9/18/2014 4:25:00p 197 1 9 36 46 86.8 83.9 29.81 0.99 1.6 485 0.00 0.00 0.00 0.000
9/18/2014 4:26:00p 264 3 10 36 46 86.8 83.9 29.81 0.99 1.6 483 0.00 0.00 0.00 0.000
9/18/2014 4:27:00p 238 4 10 36 45 86.8 83.9 29.81 0.99 1.5 478 0.00 0.00 0.00 0.000
9/18/2014 4:28:00p 230 5 10 36 46 86.8 83.9 29.81 0.99 1.5 476 0.00 0.00 0.00 0.000
9/18/2014 4:29:00p 224 5 10 36 45 86.8 84.0 29.81 0.99 1.5 473 0.00 0.00 0.00 0.000
9/18/2014 4:30:00p 197 1 10 36 45 86.8 84.1 29.81 0.99 1.5 468 0.00 0.00 0.00 0.000
9/18/2014 4:31:00p 240 5 10 36 45 86.8 84.1 29.81 0.99 1.4 462 0.00 0.00 0.00 0.000
9/18/2014 4:32:00p 238 1 10 36 45 86.8 84.1 29.81 0.99 1.4 461 0.00 0.00 0.00 0.000
9/18/2014 4:33:00p 240 2 3 36 45 86.8 84.1 29.81 0.99 1.4 459 0.00 0.00 0.00 0.000
9/18/2014 4:34:00p 224 2 3 36 45 86.8 84.1 29.81 0.99 1.4 457 0.00 0.00 0.00 0.000
9/18/2014 4:35:00p 192 2 3 36 45 86.8 84.1 29.81 0.99 1.4 450 0.00 0.00 0.00 0.000
9/18/2014 4:36:00p 248 3 9 36 45 86.8 84.0 29.81 0.99 1.3 446 0.00 0.00 0.00 0.000
9/18/2014 4:37:00p 246 4 9 36 45 86.8 84.0 29.81 0.99 1.3 445 0.00 0.00 0.00 0.000
9/18/2014 4:38:00p 246 2 9 36 45 86.8 83.9 29.81 0.99 1.3 441 0.00 0.00 0.00 0.000
9/18/2014 4:39:00p 174 5 9 36 45 86.8 83.9 29.81 0.99 1.3 439 0.00 0.00 0.00 0.000
9/18/2014 4:40:00p 189 6 10 36 45 86.8 83.8 29.81 0.99 1.3 438 0.00 0.00 0.00 0.000
9/18/2014 4:41:00p 203 10 12 36 45 86.8 83.7 29.81 0.99 1.3 429 0.00 0.00 0.00 0.000
9/18/2014 4:42:00p 193 3 12 36 45 86.6 83.5 29.81 0.99 1.2 429 0.00 0.00 0.00 0.000
9/18/2014 4:43:00p 240 3 12 36 45 86.6 83.3 29.81 0.99 1.2 424 0.00 0.00 0.00 0.000
9/18/2014 4:44:00p 180 4 12 36 46 86.6 83.2 29.81 0.99 1.2 422 0.00 0.00 0.00 0.000
9/18/2014 4:45:00p 207 4 12 36 46 86.6 83.0 29.81 0.99 1.2 418 0.00 0.00 0.00 0.000
9/18/2014 4:46:00p 207 5 12 36 46 86.6 83.1 29.81 0.99 1.2 413 0.00 0.00 0.00 0.000
9/18/2014 4:47:00p 190 5 12 36 47 86.6 83.2 29.81 0.99 1.1 410 0.00 0.00 0.00 0.000
9/18/2014 5:50:03p 215 4 10 37 53 86.2 80.8 29.81 0.99 0.0 28 0.00 0.00 0.00 0.000
9/18/2014 5:51:03p 249 3 10 37 54 86.2 80.7 29.81 0.99 0.0 28 0.00 0.00 0.00 0.000
9/18/2014 5:52:03p 183 10 10 37 54 86.2 80.7 29.81 0.99 0.0 26 0.00 0.00 0.00 0.000
9/18/2014 5:53:03p 242 5 10 37 54 86.2 80.6 29.81 0.99 0.0 26 0.00 0.00 0.00 0.000
9/18/2014 5:54:04p 203 9 10 37 54 86.2 80.6 29.81 0.99 0.0 26 0.00 0.00 0.00 0.000
9/18/2014 5:55:07p 206 2 11 37 54 86.2 80.5 29.81 0.99 0.0 25 0.00 0.00 0.00 0.000
9/18/2014 5:56:07p 188 11 11 37 54 86.2 80.4 29.81 0.99 0.0 25 0.00 0.00 0.00 0.000
9/18/2014 5:58:07p 219 4 11 37 54 86.2 80.2 29.82 0.99 0.0 25 0.00 0.00 0.00 0.000
9/18/2014 5:59:07p 184 6 11 37 54 86.2 80.1 29.82 0.99 0.0 25 0.00 0.00 0.00 0.000
9/18/2014 6:00:07p 224 3 11 37 54 86.2 80.1 29.82 0.99 0.0 23 0.00 0.00 0.00 0.000
9/18/2014 6:01:07p 190 2 11 37 54 86.2 80.0 29.82 0.99 0.0 23 0.00 0.00 0.00 0.000
9/18/2014 6:02:07p 205 1 11 37 54 86.2 80.0 29.82 0.99 0.0 23 0.00 0.00 0.00 0.000
9/18/2014 6:04:07p 198 4 6 37 54 86.2 79.9 29.82 0.99 0.0 23 0.00 0.00 0.00 0.000
9/18/2014 6:05:07p 213 6 7 37 54 86.2 79.9 29.82 0.99 0.0 23 0.00 0.00 0.00 0.000
9/18/2014 6:06:07p 256 3 7 37 54 86.2 79.9 29.82 0.99 0.0 21 0.00 0.00 0.00 0.000
9/18/2014 6:07:10p 244 0 7 37 54 86.2 79.8 29.82 0.99 0.0 21 0.00 0.00 0.00 0.000
9/18/2014 6:08:10p 244 0 7 38 54 86.2 79.8 29.82 0.99 0.0 21 0.00 0.00 0.00 0.000
9/18/2014 6:09:10p 260 1 7 38 54 86.0 79.8 29.82 0.99 0.0 21 0.00 0.00 0.00 0.000
9/18/2014 6:10:16p 264 1 7 37 54 86.0 79.8 29.82 0.99 0.0 21 0.00 0.00 0.00 0.000
9/18/2014 6:11:17p 278 4 7 37 54 86.0 79.8 29.82 0.99 0.0 21 0.00 0.00 0.00 0.000
9/18/2014 6:12:17p 281 3 7 37 54 86.0 79.8 29.83 0.99 0.0 19 0.00 0.00 0.00 0.000
9/18/2014 6:13:17p 199 5 7 37 54 86.0 79.7 29.82 0.99 0.0 19 0.00 0.00 0.00 0.000
9/18/2014 6:14:20p 236 1 7 37 54 86.0 79.7 29.83 0.99 0.0 19 0.00 0.00 0.00 0.000
9/18/2014 6:15:23p 188 3 7 37 54 86.0 79.7 29.83 0.99 0.0 19 0.00 0.00 0.00 0.000
9/18/2014 6:16:23p 215 3 7 37 54 86.0 79.7 29.83 0.99 0.0 19 0.00 0.00 0.00 0.000
9/18/2014 6:17:23p 224 4 7 37 54 86.0 79.6 29.83 0.99 0.0 18 0.00 0.00 0.00 0.000
9/18/2014 6:18:23p 216 7 7 37 54 86.0 79.6 29.83 0.99 0.0 18 0.00 0.00 0.00 0.000
9/18/2014 6:19:23p 221 1 7 37 54 86.0 79.6 29.83 0.99 0.0 18 0.00 0.00 0.00 0.000
9/18/2014 6:20:26p 219 2 7 37 54 86.0 79.5 29.83 0.99 0.0 18 0.00 0.00 0.00 0.000
9/18/2014 6:21:26p 192 6 7 38 54 86.0 79.5 29.83 0.99 0.0 18 0.00 0.00 0.00 0.000
9/18/2014 6:22:29p 245 4 9 38 54 86.0 79.4 29.83 0.99 0.0 16 0.00 0.00 0.00 0.000
9/18/2014 6:23:29p 251 1 9 38 55 86.0 79.4 29.83 0.99 0.0 16 0.00 0.00 0.00 0.000
9/18/2014 6:24:29p 209 3 9 38 55 86.0 79.3 29.83 0.99 0.0 16 0.00 0.00 0.00 0.000
9/18/2014 6:25:30p 207 0 9 38 55 86.0 79.2 29.83 0.99 0.0 16 0.00 0.00 0.00 0.000
9/18/2014 6:26:30p 197 5 12 38 55 86.0 79.2 29.83 0.99 0.0 16 0.00 0.00 0.00 0.000
9/18/2014 6:27:30p 185 5 12 38 55 86.0 79.0 29.83 0.99 0.0 14 0.00 0.00 0.00 0.000
9/18/2014 6:28:30p 194 4 12 38 55 86.0 79.0 29.83 0.99 0.0 14 0.00 0.00 0.00 0.000
9/18/2014 6:29:30p 221 4 12 38 55 86.0 79.0 29.83 0.99 0.0 14 0.00 0.00 0.00 0.000
9/18/2014 6:30:30p 197 5 12 38 55 85.8 79.0 29.83 0.99 0.0 12 0.00 0.00 0.00 0.000
9/18/2014 6:31:30p 195 4 12 38 55 85.8 78.8 29.83 0.99 0.0 12 0.00 0.00 0.00 0.000
9/18/2014 6:32:33p 180 6 12 38 55 85.8 78.8 29.83 0.99 0.0 12 0.00 0.00 0.00 0.000
9/18/2014 6:33:33p 205 2 3 38 55 85.8 78.7 29.83 0.99 0.0 12 0.00 0.00 0.00 0.000
9/18/2014 6:34:33p 230 2 3 38 55 85.8 78.7 29.83 0.99 0.0 11 0.00 0.00 0.00 0.000
9/18/2014 6:35:33p 228 2 6 38 55 85.8 78.6 29.83 0.99 0.0 11 0.00 0.00 0.00 0.000
9/18/2014 6:36:39p 220 2 6 38 55 85.8 78.5 29.83 0.99 0.0 11 0.00 0.00 0.00 0.000
9/18/2014 6:37:39p 211 1 6 38 55 85.8 78.5 29.83 0.99 0.0 9 0.00 0.00 0.00 0.000
9/18/2014 6:38:39p 234 0 6 38 55 85.8 78.5 29.83 0.99 0.0 9 0.00 0.00 0.00 0.000
9/18/2014 6:39:39p 234 0 6 38 55 85.8 78.4 29.83 0.99 0.0 9 0.00 0.00 0.00 0.000
9/18/2014 6:40:39p 241 0 6 38 56 85.8 78.4 29.83 0.99 0.0 7 0.00 0.00 0.00 0.000
9/18/2014 6:41:40p 237 4 6 38 55 85.8 78.4 29.83 0.99 0.0 7 0.00 0.00 0.00 0.000
9/18/2014 6:42:40p 194 2 6 38 55 85.8 78.4 29.83 0.99 0.0 7 0.00 0.00 0.00 0.000
9/18/2014 6:43:40p 218 0 6 38 55 85.8 78.4 29.83 0.99 0.0 5 0.00 0.00 0.00 0.000
9/18/2014 6:44:40p 232 3 6 38 55 85.8 78.3 29.83 0.99 0.0 5 0.00 0.00 0.00 0.000
9/18/2014 6:45:40p 233 0 6 38 55 85.8 78.3 29.83 0.99 0.0 5 0.00 0.00 0.00 0.000
9/18/2014 6:46:40p 233 1 6 38 55 85.8 78.2 29.83 0.99 0.0 5 0.00 0.00 0.00 0.000
9/18/2014 6:47:40p 197 4 6 38 55 85.8 78.2 29.83 0.99 0.0 5 0.00 0.00 0.00 0.000
9/18/2014 6:48:40p 234 3 6 38 55 85.8 78.1 29.83 0.99 0.0 5 0.00 0.00 0.00 0.000
9/18/2014 6:49:40p 211 2 6 38 55 85.8 78.1 29.83 0.99 0.0 0 0.00 0.00 0.00 0.000
9/18/2014 6:50:43p 215 3 7 39 55 85.8 78.1 29.83 0.99 0.0 0 0.00 0.00 0.00 0.000
9/18/2014 6:51:43p 211 6 7 39 55 85.6 78.0 29.83 0.99 0.0 0 0.00 0.00 0.00 0.000
9/18/2014 6:52:43p 201 5 7 39 55 85.6 77.9 29.83 0.99 0.0 0 0.00 0.00 0.00 0.000
9/18/2014 6:53:43p 201 5 10 39 56 85.6 77.9 29.83 0.99 0.0 0 0.00 0.00 0.00 0.000
9/18/2014 6:54:46p 196 4 11 39 55 85.6 77.8 29.83 0.99 0.0 0 0.00 0.00 0.00 0.000
9/18/2014 6:55:46p 206 4 11 39 55 85.6 77.8 29.83 0.99 0.0 0 0.00 0.00 0.00 0.000
9/18/2014 6:56:46p 193 9 11 39 56 85.6 77.8 29.83 0.99 0.0 0 0.00 0.00 0.00 0.000
9/18/2014 6:57:52p 194 5 11 39 56 85.6 77.7 29.84 0.99 0.0 0 0.00 0.00 0.00 0.000
9/18/2014 6:58:52p 198 6 11 39 56 85.6 77.6 29.83 0.99 0.0 0 0.00 0.00 0.00 0.000
9/18/2014 6:59:55p 219 3 11 39 56 85.6 77.6 29.83 0.99 0.0 0 0.00 0.00 0.00 0.000
9/18/2014 7:00:55p 194 3 11 39 56 85.6 77.5 29.83 0.99 0.0 0 0.00 0.00 0.00 0.000
9/18/2014 7:01:56p 197 2 11 39 56 85.6 77.5 29.83 0.99 0.0 0 0.00 0.00 0.00 0.000
9/18/2014 7:02:59p 244 3 11 39 56 85.6 77.5 29.84 0.99 0.0 0 0.00 0.00 0.00 0.000
9/18/2014 7:03:59p 195 7 7 39 56 85.6 77.4 29.83 0.99 0.0 0 0.00 0.00 0.00 0.000
9/18/2014 7:04:59p 211 1 7 39 56 85.6 77.4 29.83 0.99 0.0 0 0.00 0.00 0.00 0.000
9/18/2014 7:05:59p 201 5 7 39 56 85.6 77.4 29.83 0.99 0.0 0 0.00 0.00 0.00 0.000
9/18/2014 7:06:59p 233 4 7 39 56 85.6 77.3 29.83 0.99 0.0 0 0.00 0.00 0.00 0.000
9/18/2014 7:07:59p 229 4 7 39 56 85.6 77.3 29.84 0.99 0.0 0 0.00 0.00 0.00 0.000
9/18/2014 7:08:59p 190 3 7 39 56 85.6 77.2 29.84 0.99 0.0 0 0.00 0.00 0.00 0.000
9/18/2014 7:09:59p 212 1 7 39 56 85.6 77.2 29.84 0.99 0.0 0 0.00 0.00 0.00 0.000
9/18/2014 7:11:02p 226 2 7 39 56 85.4 77.1 29.83 0.99 0.0 0 0.00 0.00 0.00 0.000
9/18/2014 7:12:02p 214 2 7 39 56 85.4 77.1 29.84 0.99 0.0 0 0.00 0.00 0.00 0.000
9/18/2014 7:13:02p 217 0 7 39 56 85.4 77.0 29.84 0.99 0.0 0 0.00 0.00 0.00 0.000
9/18/2014 7:14:02p 201 1 7 39 56 85.4 77.0 29.84 0.99 0.0 0 0.00 0.00 0.00 0.000
9/18/2014 7:15:02p 209 1 7 39 56 85.4 77.0 29.84 0.99 0.0 0 0.00 0.00 0.00 0.000
9/18/2014 7:16:02p 209 2 7 39 56 85.4 76.9 29.84 0.99 0.0 0 0.00 0.00 0.00 0.000
9/18/2014 7:17:02p 209 0 7 39 56 85.4 76.9 29.84 0.99 0.0 0 0.00 0.00 0.00 0.000
9/18/2014 7:18:03p 278 2 7 39 57 85.4 76.9 29.84 0.99 0.0 0 0.00 0.00 0.00 0.000
9/18/2014 7:19:03p 269 0 2 39 57 85.4 76.9 29.84 0.99 0.0 0 0.00 0.00 0.00 0.000
9/18/2014 7:20:03p 191 3 5 39 57 85.4 76.8 29.84 0.99 0.0 0 0.00 0.00 0.00 0.000
9/18/2014 7:21:06p 209 2 6 39 57 85.4 76.8 29.84 0.99 0.0 0 0.00 0.00 0.00 0.000
9/18/2014 7:22:06p 203 3 6 39 57 85.4 76.8 29.84 0.99 0.0 0 0.00 0.00 0.00 0.000
9/18/2014 7:23:06p 215 0 6 39 57 85.4 76.7 29.84 0.99 0.0 0 0.00 0.00 0.00 0.000
9/18/2014 7:24:06p 276 0 6 39 57 85.4 76.7 29.84 0.99 0.0 0 0.00 0.00 0.00 0.000
9/18/2014 7:25:06p 242 2 6 39 57 85.4 76.7 29.84 0.99 0.0 0 0.00 0.00 0.00 0.000
9/18/2014 7:26:06p 228 2 6 39 57 85.4 76.6 29.84 0.99 0.0 0 0.00 0.00 0.00 0.000
9/18/2014 7:27:06p 171 3 6 39 57 85.4 76.5 29.84 0.99 0.0 0 0.00 0.00 0.00 0.000
9/18/2014 7:28:06p 211 4 6 39 57 85.4 76.5 29.84 0.99 0.0 0 0.00 0.00 0.00 0.000
9/18/2014 7:29:06p 191 5 6 39 57 85.4 76.4 29.84 0.99 0.0 0 0.00 0.00 0.00 0.000
9/18/2014 7:30:06p 192 4 6 39 57 85.2 76.4 29.84 0.99 0.0 0 0.00 0.00 0.00 0.000
9/18/2014 7:31:06p 207 4 6 39 57 85.2 76.3 29.84 0.99 0.0 0 0.00 0.00 0.00 0.000
9/18/2014 7:32:06p 232 3 6 39 57 85.2 76.3 29.84 0.99 0.0 0 0.00 0.00 0.00 0.000
9/18/2014 7:33:06p 233 2 6 39 57 85.2 76.3 29.84 0.99 0.0 0 0.00 0.00 0.00 0.000
9/18/2014 7:34:06p 233 0 3 39 58 85.2 76.2 29.84 0.99 0.0 0 0.00 0.00 0.00 0.000
9/18/2014 7:35:09p 240 2 4 39 58 85.2 76.1 29.84 0.99 0.0 0 0.00 0.00 0.00 0.000
9/18/2014 7:36:09p 256 1 4 39 58 85.2 76.1 29.84 0.99 0.0 0 0.00 0.00 0.00 0.000
9/18/2014 7:37:12p 203 1 4 39 58 85.2 76.1 29.84 0.99 0.0 0 0.00 0.00 0.00 0.000
9/18/2014 7:38:12p 213 2 4 39 58 85.2 76.0 29.84 0.99 0.0 0 0.00 0.00 0.00 0.000
9/18/2014 7:39:19p 215 0 4 39 58 85.2 76.0 29.84 0.99 0.0 0 0.00 0.00 0.00 0.000
9/18/2014 7:40:19p 215 1 4 39 58 85.2 75.9 29.84 0.99 0.0 0 0.00 0.00 0.00 0.000
9/18/2014 7:41:19p 238 4 4 40 58 85.0 75.9 29.84 0.99 0.0 0 0.00 0.00 0.00 0.000
9/18/2014 7:42:19p 219 3 5 40 58 85.0 75.8 29.84 0.99 0.0 0 0.00 0.00 0.00 0.000
9/18/2014 7:43:19p 221 2 5 40 58 85.0 75.8 29.84 0.99 0.0 0 0.00 0.00 0.00 0.000
9/18/2014 7:44:19p 221 0 5 40 59 85.0 75.8 29.84 0.99 0.0 0 0.00 0.00 0.00 0.000
9/18/2014 7:45:22p 221 0 5 40 59 85.0 75.7 29.84 0.99 0.0 0 0.00 0.00 0.00 0.000
9/18/2014 7:46:22p 221 0 5 40 59 85.0 75.7 29.85 0.99 0.0 0 0.00 0.00 0.00 0.000
9/18/2014 7:47:22p 221 0 5 40 59 85.0 75.7 29.85 0.99 0.0 0 0.00 0.00 0.00 0.000
9/18/2014 7:48:22p 221 0 1 40 59 85.0 75.6 29.85 0.99 0.0 0 0.00 0.00 0.00 0.000
9/18/2014 7:49:22p 221 0 1 40 59 85.0 75.6 29.85 0.99 0.0 0 0.00 0.00 0.00 0.000
9/18/2014 7:50:22p 221 0 1 40 59 85.0 75.6 29.85 0.99 0.0 0 0.00 0.00 0.00 0.000
9/18/2014 7:51:22p 214 2 2 40 59 85.0 75.6 29.85 0.99 0.0 0 0.00 0.00 0.00 0.000
9/18/2014 7:52:25p 228 2 5 40 59 85.0 75.5 29.85 0.99 0.0 0 0.00 0.00 0.00 0.000
9/18/2014 7:53:26p 242 2 5 40 60 85.0 75.5 29.85 0.99 0.0 0 0.00 0.00 0.00 0.000
9/18/2014 7:54:26p 205 4 5 40 60 85.0 75.4 29.85 0.99 0.0 0 0.00 0.00 0.00 0.000
9/18/2014 7:55:26p 211 3 5 40 60 85.0 75.4 29.85 0.99 0.0 0 0.00 0.00 0.00 0.000
9/18/2014 7:56:29p 211 0 5 40 60 85.0 75.4 29.85 0.99 0.0 0 0.00 0.00 0.00 0.000
9/18/2014 7:57:29p 211 0 5 40 60 85.0 75.3 29.85 0.99 0.0 0 0.00 0.00 0.00 0.000
9/18/2014 7:58:29p 211 0 5 40 60 84.8 75.2 29.85 0.99 0.0 0 0.00 0.00 0.00 0.000
9/18/2014 7:59:32p 211 1 5 40 60 84.8 75.2 29.85 0.99 0.0 0 0.00 0.00 0.00 0.000
9/18/2014 8:00:32p 211 0 5 40 60 84.8 75.2 29.85 0.99 0.0 0 0.00 0.00 0.00 0.000
9/18/2014 8:01:32p 238 3 5 40 61 84.8 75.1 29.85 0.99 0.0 0 0.00 0.00 0.00 0.000
9/18/2014 8:02:32p 238 2 5 40 61 84.8 75.1 29.85 0.99 0.0 0 0.00 0.00 0.00 0.000
9/18/2014 8:03:32p 235 4 4 40 61 84.8 75.0 29.85 0.99 0.0 0 0.00 0.00 0.00 0.000
9/18/2014 8:04:32p 236 0 4 40 61 84.8 75.0 29.85 0.99 0.0 0 0.00 0.00 0.00 0.000
9/18/2014 8:05:35p 234 1 4 40 61 84.8 74.9 29.85 0.99 0.0 0 0.00 0.00 0.00 0.000
9/18/2014 8:06:35p 211 2 5 40 61 84.8 74.9 29.85 0.99 0.0 0 0.00 0.00 0.00 0.000
9/18/2014 8:07:35p 203 2 5 40 61 84.8 74.8 29.85 0.99 0.0 0 0.00 0.00 0.00 0.000
9/18/2014 8:08:35p 215 2 6 40 61 84.8 74.8 29.85 0.99 0.0 0 0.00 0.00 0.00 0.000
9/18/2014 8:09:36p 215 0 6 40 61 84.8 74.7 29.85 0.99 0.0 0 0.00 0.00 0.00 0.000
9/18/2014 8:10:36p 229 3 6 40 62 84.8 74.7 29.85 0.99 0.0 0 0.00 0.00 0.00 0.000
9/18/2014 8:11:36p 230 0 6 40 62 84.6 74.6 29.85 0.99 0.0 0 0.00 0.00 0.00 0.000
9/18/2014 8:12:36p 230 4 6 40 62 84.6 74.6 29.85 0.99 0.0 0 0.00 0.00 0.00 0.000
9/18/2014 8:13:36p 217 4 6 40 62 84.6 74.6 29.85 0.99 0.0 0 0.00 0.00 0.00 0.000
9/18/2014 8:14:36p 217 0 6 40 62 84.6 74.5 29.85 0.99 0.0 0 0.00 0.00 0.00 0.000
9/18/2014 8:15:37p 217 1 6 40 62 84.6 74.5 29.85 0.99 0.0 0 0.00 0.00 0.00 0.000
9/18/2014 8:16:40p 218 0 6 40 62 84.6 74.4 29.86 0.99 0.0 0 0.00 0.00 0.00 0.000
9/18/2014 8:17:43p 218 0 6 40 63 84.6 74.4 29.86 0.99 0.0 0 0.00 0.00 0.00 0.000
9/18/2014 8:18:43p 218 0 2 40 63 84.6 74.3 29.86 0.99 0.0 0 0.00 0.00 0.00 0.000
9/18/2014 8:19:43p 218 1 2 40 63 84.6 74.3 29.86 0.99 0.0 0 0.00 0.00 0.00 0.000
9/18/2014 8:20:43p 218 1 2 40 63 84.6 74.3 29.86 0.99 0.0 0 0.00 0.00 0.00 0.000
9/18/2014 8:21:43p 254 4 4 40 63 84.6 74.2 29.86 0.99 0.0 0 0.00 0.00 0.00 0.000
9/18/2014 8:22:43p 232 1 5 40 63 84.6 74.2 29.86 0.99 0.0 0 0.00 0.00 0.00 0.000
9/18/2014 8:23:43p 211 0 5 40 63 84.6 74.2 29.86 0.99 0.0 0 0.00 0.00 0.00 0.000
9/18/2014 8:24:43p 211 0 5 40 63 84.6 74.2 29.86 0.99 0.0 0 0.00 0.00 0.00 0.000
9/18/2014 8:25:43p 213 3 5 40 63 84.6 74.1 29.86 0.99 0.0 0 0.00 0.00 0.00 0.000
9/18/2014 8:26:43p 197 4 5 40 63 84.6 74.1 29.86 0.99 0.0 0 0.00 0.00 0.00 0.000
9/18/2014 8:27:43p 197 2 5 40 64 84.6 74.1 29.86 0.99 0.0 0 0.00 0.00 0.00 0.000
9/18/2014 8:28:43p 197 0 5 40 64 84.6 74.0 29.86 0.99 0.0 0 0.00 0.00 0.00 0.000
9/18/2014 8:29:43p 198 1 5 40 64 84.4 74.0 29.86 0.99 0.0 0 0.00 0.00 0.00 0.000
9/18/2014 8:30:43p 199 2 5 40 64 84.4 73.9 29.86 0.99 0.0 0 0.00 0.00 0.00 0.000
9/18/2014 8:31:43p 199 1 5 40 64 84.4 73.9 29.86 0.99 0.0 0 0.00 0.00 0.00 0.000
9/18/2014 8:32:44p 199 2 5 40 64 84.4 73.8 29.86 0.99 0.0 0 0.00 0.00 0.00 0.000
9/18/2014 8:33:47p 199 0 1 40 64 84.4 73.8 29.86 0.99 0.0 0 0.00 0.00 0.00 0.000
9/18/2014 8:34:47p 199 0 1 40 64 84.4 73.7 29.86 0.99 0.0 0 0.00 0.00 0.00 0.000
9/18/2014 8:35:47p 198 0 1 40 65 84.4 73.7 29.86 0.99 0.0 0 0.00 0.00 0.00 0.000
9/18/2014 8:36:47p 202 1 1 40 65 84.4 73.7 29.86 0.99 0.0 0 0.00 0.00 0.00 0.000
9/18/2014 8:37:47p 202 0 2 40 65 84.4 73.7 29.86 0.99 0.0 0 0.00 0.00 0.00 0.000
9/18/2014 8:38:47p 251 1 2 40 65 84.4 73.6 29.86 0.99 0.0 0 0.00 0.00 0.00 0.000
9/18/2014 8:39:47p 263 0 2 40 65 84.4 73.6 29.86 0.99 0.0 0 0.00 0.00 0.00 0.000
9/18/2014 8:40:47p 232 3 4 40 65 84.2 73.6 29.87 0.99 0.0 0 0.00 0.00 0.00 0.000
9/18/2014 8:41:47p 260 1 4 40 65 84.2 73.5 29.87 0.99 0.0 0 0.00 0.00 0.00 0.000
9/18/2014 8:42:47p 259 1 4 40 65 84.2 73.4 29.87 0.99 0.0 0 0.00 0.00 0.00 0.000
9/18/2014 8:43:47p 259 0 4 40 65 84.2 73.4 29.87 0.99 0.0 0 0.00 0.00 0.00 0.000

© All rights reserved. Unauthorized duplication or distribution is prohibited

Never base important decisions on this or any weather information obtained from the Internet

California State University, San Bernardino
5500 University Parkway, San Bernardino, CA. 92407
Phone: (909) 537-7558, Email: Weather Master
Last Updated: